Terminal Aerodrome Forecast
Issued by NWS Louisville, KY

Home | Current Version | Previous Version | Text Only | Print | Product List | Glossary On
Versions: 1 2 3 4 5 6 7 8 9 10 11 12 13 14 15 16 17 18
000
FTUS43 KLMK 221126
TAFSDF
TAF
KSDF 221126Z 2212/2318 20005KT P6SM SCT050
      TEMPO 2212/2213 5SM HZ
     FM221500 22010KT P6SM SCT060
     FM231000 25008KT P6SM BKN050 PROB30 2310/2316 -TSRA BKN045CB=

USA.gov is the U.S. government's official web portal to all federal, state and local government web resources and services.